Time;durP1;ratioP1;P1;durP2;ratioP2;P2;SDS_P1;SDS_P2;PMS_P1;PMS_P2;Temp;Humidity;BMP_temperature;BMP_pressure;BME280_temperature;BME280_humidity;BME280_pressure;Samples;Min_cycle;Max_cycle;Signal;HPM_P1;HPM_P2
2023/02/28 00:01:34;;;;;;;4.30;3.90;;;2.60;99.90;;;;;;5090072;28;20234;-72
2023/02/28 00:04:01;;;;;;;4.60;3.53;;;2.60;99.90;;;;;;5089342;28;20260;-72
2023/02/28 00:06:28;;;;;;;5.27;3.57;;;2.60;99.90;;;;;;5089874;28;20750;-72
2023/02/28 00:08:57;;;;;;;4.37;3.27;;;2.60;99.90;;;;;;5089164;28;20270;-72
2023/02/28 00:11:24;;;;;;;3.47;3.13;;;2.60;99.90;;;;;;5089917;28;20210;-72
2023/02/28 00:13:51;;;;;;;4.70;3.10;;;2.60;99.90;;;;;;5089215;28;20250;-72
2023/02/28 00:16:20;;;;;;;2.93;2.70;;;2.60;99.90;;;;;;5089864;28;20294;-72
2023/02/28 00:18:48;;;;;;;4.97;3.73;;;2.70;99.90;;;;;;5089641;28;20673;-72
2023/02/28 00:21:16;;;;;;;3.40;3.10;;;2.60;99.90;;;;;;5089955;28;20296;-72
2023/02/28 00:23:43;;;;;;;5.30;3.80;;;2.60;99.90;;;;;;5089514;28;20207;-72
2023/02/28 00:26:12;;;;;;;3.80;3.50;;;2.60;99.90;;;;;;5089476;28;20307;-71
2023/02/28 00:28:39;;;;;;;3.73;3.40;;;2.60;99.90;;;;;;5089165;28;20202;-70
2023/02/28 00:31:05;;;;;;;3.67;3.27;;;2.60;99.90;;;;;;5089630;28;20284;-69
2023/02/28 00:33:32;;;;;;;3.87;3.43;;;2.60;99.90;;;;;;5089146;28;20669;-70
2023/02/28 00:36:04;;;;;;;4.10;3.27;;;2.50;99.90;;;;;;5089392;28;20227;-69
2023/02/28 00:38:31;;;;;;;4.50;3.40;;;2.60;99.90;;;;;;5088938;28;20206;-69
2023/02/28 00:41:04;;;;;;;3.83;3.40;;;2.60;99.90;;;;;;5089020;28;20295;-69
2023/02/28 00:43:33;;;;;;;3.00;2.67;;;2.60;99.90;;;;;;5088357;28;20575;-69
2023/02/28 00:46:00;;;;;;;4.23;2.93;;;2.50;99.90;;;;;;5088819;28;20329;-69
2023/02/28 00:48:27;;;;;;;3.10;2.83;;;2.60;99.90;;;;;;5089141;28;20663;-69
2023/02/28 00:50:54;;;;;;;3.40;3.17;;;2.60;99.90;;;;;;5088880;28;20202;-70
2023/02/28 00:53:21;;;;;;;4.60;3.10;;;2.60;99.90;;;;;;5088941;28;20295;-70
2023/02/28 00:55:49;;;;;;;3.47;2.77;;;2.50;99.90;;;;;;5088828;28;20256;-71
2023/02/28 00:58:16;;;;;;;4.57;3.33;;;2.60;99.90;;;;;;5089277;28;20499;-71
2023/02/28 01:00:48;;;;;;;3.43;2.97;;;2.60;99.90;;;;;;5088814;28;20286;-71
2023/02/28 01:03:16;;;;;;;4.63;2.90;;;2.50;99.90;;;;;;5087842;28;20290;-71
2023/02/28 01:05:43;;;;;;;3.63;2.77;;;2.50;99.90;;;;;;5088384;28;20661;-71
2023/02/28 01:08:09;;;;;;;3.77;2.80;;;2.50;99.90;;;;;;5088082;28;20241;-71
2023/02/28 01:10:38;;;;;;;3.20;2.90;;;2.50;99.90;;;;;;5088853;28;20242;-71
2023/02/28 01:13:05;;;;;;;4.03;2.93;;;2.60;99.90;;;;;;5068458;28;20689;-71
2023/02/28 01:15:32;;;;;;;2.80;2.60;;;2.60;99.90;;;;;;5086779;28;20242;-71
2023/02/28 01:18:01;;;;;;;4.37;3.00;;;2.60;99.90;;;;;;5088999;28;20207;-71
2023/02/28 01:20:27;;;;;;;2.90;2.60;;;2.50;99.90;;;;;;5069707;28;20302;-72
2023/02/28 01:22:54;;;;;;;2.90;2.70;;;2.60;99.90;;;;;;5086211;28;20264;-72
2023/02/28 01:25:21;;;;;;;4.07;2.63;;;2.60;99.90;;;;;;5087494;28;20233;-71
2023/02/28 01:27:48;;;;;;;3.67;2.80;;;2.60;99.90;;;;;;5088292;28;20672;-71
2023/02/28 01:30:15;;;;;;;2.80;2.60;;;2.50;99.90;;;;;;5088467;28;20301;-71
2023/02/28 01:32:42;;;;;;;3.30;3.00;;;2.50;99.90;;;;;;5088226;28;20553;-71
2023/02/28 01:35:11;;;;;;;3.63;3.20;;;2.50;99.90;;;;;;5088480;28;20265;-73
2023/02/28 01:37:38;;;;;;;3.37;3.07;;;2.50;99.90;;;;;;5088482;28;20330;-73
2023/02/28 01:40:06;;;;;;;4.43;3.00;;;2.50;99.90;;;;;;5088351;28;20298;-73
2023/02/28 01:42:33;;;;;;;5.00;2.90;;;2.50;99.90;;;;;;5088032;28;20732;-73
2023/02/28 01:45:18;;;;;;;2.77;2.57;;;2.50;99.90;;;;;;5088310;28;20261;-73
2023/02/28 01:47:46;;;;;;;3.07;2.87;;;2.50;99.90;;;;;;5088566;28;20751;-73
2023/02/28 01:50:18;;;;;;;4.27;3.17;;;2.50;99.90;;;;;;5077153;28;20838;-73
2023/02/28 01:52:48;;;;;;;4.37;2.77;;;2.40;99.90;;;;;;5087680;28;20283;-73
2023/02/28 01:55:17;;;;;;;2.93;2.60;;;2.40;99.90;;;;;;5088681;28;20234;-72
2023/02/28 01:57:47;;;;;;;3.27;2.70;;;2.40;99.90;;;;;;5088318;28;20310;-72
2023/02/28 02:00:16;;;;;;;3.00;2.70;;;2.40;99.90;;;;;;5073311;28;20265;-73
2023/02/28 02:02:46;;;;;;;2.67;2.47;;;2.40;99.90;;;;;;5067393;28;20295;-73
2023/02/28 02:05:19;;;;;;;3.70;2.90;;;2.40;99.90;;;;;;5068120;28;20372;-73
2023/02/28 02:07:49;;;;;;;3.83;3.10;;;2.40;99.90;;;;;;5067431;28;20289;-73
2023/02/28 02:10:18;;;;;;;3.87;2.60;;;2.40;99.90;;;;;;5067629;28;20211;-73
2023/02/28 02:12:59;;;;;;;2.80;2.60;;;2.30;99.90;;;;;;5086130;28;20698;-73
2023/02/28 02:15:34;;;;;;;3.57;3.10;;;2.30;99.90;;;;;;5087929;28;20292;-72
2023/02/28 02:18:07;;;;;;;4.93;3.43;;;2.30;99.90;;;;;;5087934;28;20302;-71
2023/02/28 02:21:11;;;;;;;5.00;3.27;;;2.30;99.90;;;;;;5087332;28;20646;-71
2023/02/28 02:24:04;;;;;;;3.50;2.97;;;2.30;99.90;;;;;;5083120;28;20198;-71
2023/02/28 02:27:20;;;;;;;2.90;2.70;;;2.30;99.90;;;;;;5107924;28;20224;-71
2023/02/28 02:30:18;;;;;;;4.97;3.40;;;2.30;99.90;;;;;;5018359;28;20288;-73
2023/02/28 02:33:04;;;;;;;4.43;3.13;;;2.20;99.90;;;;;;5083736;28;20241;-71
2023/02/28 02:35:41;;;;;;;3.60;3.03;;;2.20;99.90;;;;;;5087803;28;20235;-71
2023/02/28 02:38:13;;;;;;;4.83;3.10;;;2.20;99.90;;;;;;5087567;28;20226;-72
2023/02/28 02:40:48;;;;;;;4.27;3.00;;;2.20;99.90;;;;;;5087454;28;20294;-72
2023/02/28 02:43:19;;;;;;;3.63;3.10;;;2.10;99.90;;;;;;5088016;28;20277;-72
2023/02/28 02:45:51;;;;;;;4.83;3.10;;;2.10;99.90;;;;;;5067628;28;20298;-72
2023/02/28 02:48:21;;;;;;;4.33;2.93;;;2.00;99.90;;;;;;5085915;28;20684;-72
2023/02/28 02:50:53;;;;;;;3.20;2.97;;;2.00;99.90;;;;;;5068702;28;20670;-72
2023/02/28 02:53:24;;;;;;;3.60;3.27;;;1.90;99.90;;;;;;5087355;28;20295;-72
2023/02/28 02:55:54;;;;;;;4.20;3.10;;;1.90;99.90;;;;;;5087182;28;20289;-72
2023/02/28 02:58:25;;;;;;;3.30;3.00;;;1.90;99.90;;;;;;5088005;28;20289;-72
2023/02/28 03:00:55;;;;;;;4.10;3.07;;;1.80;99.90;;;;;;5087001;28;20756;-72
2023/02/28 03:03:28;;;;;;;4.10;3.30;;;1.80;99.90;;;;;;5087538;28;20286;-70
2023/02/28 03:05:57;;;;;;;2.77;2.57;;;1.70;99.90;;;;;;5087177;28;20223;-70
2023/02/28 03:08:24;;;;;;;4.50;3.43;;;1.70;99.90;;;;;;5086614;28;20321;-70
2023/02/28 03:10:53;;;;;;;4.50;3.00;;;1.60;99.90;;;;;;5086946;28;20290;-70
2023/02/28 03:13:48;;;;;;;3.47;3.17;;;1.60;99.90;;;;;;5087357;28;20211;-70
2023/02/28 03:16:34;;;;;;;3.33;3.03;;;1.60;99.90;;;;;;5062151;28;20299;-71
2023/02/28 03:19:26;;;;;;;5.80;3.37;;;1.60;99.90;;;;;;5073984;28;20725;-72
2023/02/28 03:22:05;;;;;;;5.47;3.30;;;1.60;99.90;;;;;;5086856;28;20241;-71
2023/02/28 03:24:40;;;;;;;3.37;2.93;;;1.60;99.90;;;;;;5089850;28;20290;-70
2023/02/28 03:27:11;;;;;;;5.63;3.23;;;1.60;99.90;;;;;;5080232;28;20631;-71
2023/02/28 03:29:43;;;;;;;3.27;2.87;;;1.60;99.90;;;;;;5075460;28;20193;-71
2023/02/28 03:32:21;;;;;;;3.53;2.90;;;1.50;99.90;;;;;;5086620;28;20195;-71
2023/02/28 03:34:54;;;;;;;4.60;3.50;;;1.50;99.90;;;;;;5086301;28;20310;-71
2023/02/28 03:37:25;;;;;;;4.07;3.17;;;1.50;99.90;;;;;;5086881;28;20191;-71
2023/02/28 03:39:57;;;;;;;3.40;3.10;;;1.40;99.90;;;;;;5086348;28;20256;-71
2023/02/28 03:42:28;;;;;;;3.73;3.30;;;1.40;99.90;;;;;;5086381;28;20280;-71
2023/02/28 03:45:00;;;;;;;4.73;2.97;;;1.30;99.90;;;;;;5082123;28;20211;-71
2023/02/28 03:47:32;;;;;;;4.03;3.53;;;1.30;99.90;;;;;;5086982;28;20282;-71
2023/02/28 03:50:04;;;;;;;5.13;2.93;;;1.30;99.90;;;;;;5086698;28;20206;-71
2023/02/28 03:52:38;;;;;;;4.53;3.60;;;1.20;99.90;;;;;;5086282;28;20214;-71
2023/02/28 03:55:11;;;;;;;5.60;3.50;;;1.10;99.90;;;;;;5086018;28;20326;-71
2023/02/28 03:57:43;;;;;;;3.10;2.83;;;1.10;99.90;;;;;;5086311;28;20202;-71
2023/02/28 04:00:14;;;;;;;3.53;3.23;;;1.10;99.90;;;;;;5086570;28;20278;-71
2023/02/28 04:02:41;;;;;;;3.70;3.23;;;1.10;99.90;;;;;;5085629;28;20197;-72
2023/02/28 04:05:09;;;;;;;3.50;3.20;;;1.00;99.90;;;;;;5086267;28;20203;-72
2023/02/28 04:07:37;;;;;;;4.10;3.57;;;1.00;99.90;;;;;;5089072;28;20273;-72
2023/02/28 04:10:05;;;;;;;3.43;3.10;;;1.00;99.90;;;;;;5089119;28;20217;-72
2023/02/28 04:12:31;;;;;;;3.63;3.33;;;1.00;99.90;;;;;;5088092;28;20256;-74
2023/02/28 04:14:58;;;;;;;3.83;3.23;;;0.90;99.90;;;;;;5089389;28;20205;-70
2023/02/28 04:17:25;;;;;;;3.97;3.27;;;1.00;99.90;;;;;;5089915;28;20285;-70
2023/02/28 04:19:53;;;;;;;4.13;3.27;;;0.90;99.90;;;;;;5088796;28;20261;-70
2023/02/28 04:22:20;;;;;;;4.43;3.10;;;0.90;99.90;;;;;;5089554;28;20206;-70
2023/02/28 04:24:48;;;;;;;4.33;3.23;;;0.90;99.90;;;;;;5089553;28;20297;-70
2023/02/28 04:27:16;;;;;;;3.87;3.40;;;0.90;99.90;;;;;;5089607;28;20737;-70
2023/02/28 04:29:44;;;;;;;4.13;3.40;;;0.80;99.90;;;;;;5089799;28;20221;-70
2023/02/28 04:32:11;;;;;;;5.47;3.63;;;0.80;99.90;;;;;;5089333;28;20622;-70
2023/02/28 04:34:38;;;;;;;4.07;3.50;;;0.80;99.90;;;;;;5089050;28;20222;-71
2023/02/28 04:37:06;;;;;;;3.83;3.50;;;0.80;99.90;;;;;;5089252;28;20294;-71
2023/02/28 04:39:36;;;;;;;3.87;3.50;;;0.80;99.90;;;;;;5088968;28;20297;-71
2023/02/28 04:42:04;;;;;;;4.33;3.57;;;0.80;99.90;;;;;;5089426;28;21235;-72
2023/02/28 04:44:31;;;;;;;4.30;3.90;;;0.80;99.90;;;;;;5089175;28;20941;-72
2023/02/28 04:46:58;;;;;;;4.30;3.90;;;0.80;99.90;;;;;;5089482;28;20541;-72
2023/02/28 04:49:25;;;;;;;4.60;4.20;;;0.80;99.90;;;;;;5089391;28;20238;-72
2023/02/28 04:51:52;;;;;;;5.63;4.30;;;0.70;99.90;;;;;;5089500;28;20250;-72
2023/02/28 04:54:19;;;;;;;7.23;4.43;;;0.70;99.90;;;;;;5088668;28;20207;-71
2023/02/28 04:56:48;;;;;;;4.23;3.87;;;0.60;99.90;;;;;;5088845;28;20695;-71
2023/02/28 04:59:16;;;;;;;3.70;3.40;;;0.70;99.90;;;;;;5089107;28;20210;-71
2023/02/28 05:01:47;;;;;;;4.60;4.00;;;0.60;99.90;;;;;;5088536;28;20653;-73
2023/02/28 05:04:14;;;;;;;4.13;3.73;;;0.70;99.90;;;;;;5089279;28;20283;-71
2023/02/28 05:06:41;;;;;;;4.47;3.67;;;0.70;99.90;;;;;;5088908;28;20341;-71
2023/02/28 05:09:08;;;;;;;5.13;3.50;;;0.60;99.90;;;;;;5088280;28;20330;-71
2023/02/28 05:11:35;;;;;;;4.47;3.47;;;0.50;99.90;;;;;;5088341;28;20286;-71
2023/02/28 05:14:03;;;;;;;5.83;4.10;;;0.50;99.90;;;;;;5088932;28;20210;-71
2023/02/28 05:16:32;;;;;;;6.13;4.17;;;0.50;99.90;;;;;;5088605;28;20737;-71
2023/02/28 05:18:59;;;;;;;4.47;3.80;;;0.50;99.90;;;;;;5088984;28;20301;-71
2023/02/28 05:21:29;;;;;;;4.47;4.07;;;0.50;99.90;;;;;;5088488;28;20296;-71
2023/02/28 05:23:57;;;;;;;5.87;4.10;;;0.50;99.90;;;;;;5088275;28;20292;-71
2023/02/28 05:26:24;;;;;;;5.07;3.93;;;0.40;99.90;;;;;;5088361;28;20601;-72
2023/02/28 05:28:51;;;;;;;4.63;3.90;;;0.40;99.90;;;;;;5088490;28;20245;-71
2023/02/28 05:31:18;;;;;;;4.40;4.00;;;0.40;99.90;;;;;;5088702;28;20199;-71
2023/02/28 05:33:47;;;;;;;5.77;4.00;;;0.30;99.90;;;;;;5087929;28;20782;-71
2023/02/28 05:36:14;;;;;;;5.07;4.17;;;0.30;99.90;;;;;;5088327;28;20310;-71
2023/02/28 05:38:41;;;;;;;4.63;3.80;;;0.30;99.90;;;;;;5087855;28;20772;-71
2023/02/28 05:41:08;;;;;;;4.57;4.17;;;0.30;99.90;;;;;;5088308;28;20280;-70
2023/02/28 05:43:36;;;;;;;5.77;4.20;;;0.30;99.90;;;;;;5087798;28;20293;-71
2023/02/28 05:46:05;;;;;;;5.73;4.30;;;0.30;99.90;;;;;;5087520;28;20234;-71
2023/02/28 05:48:32;;;;;;;4.80;4.30;;;0.30;99.90;;;;;;5084281;28;20820;-72
2023/02/28 05:51:00;;;;;;;5.20;4.30;;;0.30;99.90;;;;;;5067667;28;20694;-71
2023/02/28 05:53:27;;;;;;;5.33;4.57;;;0.30;99.90;;;;;;5067252;28;20294;-71
2023/02/28 05:55:54;;;;;;;6.10;4.87;;;0.30;99.90;;;;;;5078737;28;20746;-70
2023/02/28 05:58:22;;;;;;;5.13;4.47;;;0.30;99.90;;;;;;5087644;28;20784;-71
2023/02/28 06:00:49;;;;;;;9.13;4.73;;;0.30;99.90;;;;;;5087922;28;20282;-71
2023/02/28 06:03:16;;;;;;;7.00;4.67;;;0.30;99.90;;;;;;5088020;28;20659;-71
2023/02/28 06:05:43;;;;;;;5.13;4.60;;;0.30;99.90;;;;;;5084145;28;20293;-70
2023/02/28 06:08:11;;;;;;;8.13;4.87;;;0.30;99.90;;;;;;5087465;28;21132;-71
2023/02/28 06:10:38;;;;;;;9.23;4.80;;;0.20;99.90;;;;;;5087439;28;20264;-71
2023/02/28 06:13:06;;;;;;;6.30;4.87;;;0.20;99.90;;;;;;5088072;28;20285;-71
2023/02/28 06:15:33;;;;;;;8.73;5.50;;;0.30;99.90;;;;;;5087564;28;20234;-71
2023/02/28 06:18:00;;;;;;;9.87;6.00;;;0.40;99.90;;;;;;5087469;28;20246;-71
2023/02/28 06:20:29;;;;;;;6.53;5.60;;;0.50;99.90;;;;;;5087727;28;20239;-71
2023/02/28 06:22:58;;;;;;;9.47;5.77;;;0.60;99.90;;;;;;5087062;28;20681;-71
2023/02/28 06:25:26;;;;;;;10.10;6.37;;;0.70;99.90;;;;;;5087675;28;20290;-71
2023/02/28 06:27:53;;;;;;;5.67;5.10;;;0.70;99.90;;;;;;5087528;28;20323;-71
2023/02/28 06:30:23;;;;;;;6.87;4.80;;;0.60;99.90;;;;;;5083585;28;20291;-72
2023/02/28 06:32:50;;;;;;;5.40;4.73;;;0.50;99.90;;;;;;5071647;28;20206;-72
2023/02/28 06:35:17;;;;;;;7.67;5.00;;;0.50;99.90;;;;;;5087918;28;20758;-72
2023/02/28 06:37:44;;;;;;;8.50;4.90;;;0.40;99.90;;;;;;5087555;28;20289;-72
2023/02/28 06:40:12;;;;;;;7.70;5.30;;;0.40;99.90;;;;;;5087886;28;20206;-72
2023/02/28 06:42:41;;;;;;;7.50;5.30;;;0.30;99.90;;;;;;5087527;28;20243;-72
2023/02/28 06:45:09;;;;;;;5.37;4.43;;;0.30;99.90;;;;;;5087962;28;20237;-72
2023/02/28 06:47:37;;;;;;;5.37;4.70;;;0.30;99.90;;;;;;5087158;28;20234;-72
2023/02/28 06:50:04;;;;;;;7.27;4.77;;;0.30;99.90;;;;;;5071966;28;20212;-72
2023/02/28 06:52:31;;;;;;;7.23;5.20;;;0.30;99.90;;;;;;5081106;28;20752;-72
2023/02/28 06:55:00;;;;;;;6.10;4.77;;;0.30;99.90;;;;;;5087323;28;20653;-72
2023/02/28 06:57:30;;;;;;;5.70;4.80;;;0.30;99.90;;;;;;5087469;28;20299;-72
2023/02/28 06:59:59;;;;;;;7.07;5.20;;;0.30;99.90;;;;;;5091700;28;20229;-72
2023/02/28 07:02:26;;;;;;;5.63;5.13;;;0.30;99.90;;;;;;5091397;28;20206;-72
2023/02/28 07:04:53;;;;;;;5.83;5.03;;;0.30;99.90;;;;;;5091591;28;20206;-72
2023/02/28 07:07:20;;;;;;;7.07;5.23;;;0.30;99.90;;;;;;5091058;28;20328;-72
2023/02/28 07:09:47;;;;;;;6.07;5.23;;;0.40;99.90;;;;;;5090946;28;20297;-72
2023/02/28 07:12:14;;;;;;;6.90;5.77;;;0.40;99.90;;;;;;5090923;28;20741;-72
2023/02/28 07:14:41;;;;;;;6.70;5.20;;;0.40;99.90;;;;;;5091349;28;20225;-72
2023/02/28 07:17:11;;;;;;;6.37;5.00;;;0.50;99.90;;;;;;5090876;28;20650;-72
2023/02/28 07:19:38;;;;;;;7.63;6.17;;;0.50;99.90;;;;;;5090859;28;20206;-72
2023/02/28 07:22:05;;;;;;;7.73;5.60;;;0.60;99.90;;;;;;5090994;28;20203;-71
2023/02/28 07:24:33;;;;;;;7.23;6.13;;;0.60;99.90;;;;;;5090422;28;20249;-72
2023/02/28 07:27:00;;;;;;;7.10;5.90;;;0.70;99.90;;;;;;5070701;28;20945;-72
2023/02/28 07:29:27;;;;;;;6.50;5.87;;;0.80;99.90;;;;;;5090773;28;20241;-71
2023/02/28 07:31:54;;;;;;;7.63;5.73;;;0.90;99.90;;;;;;5090213;28;20756;-72
2023/02/28 07:34:23;;;;;;;6.80;5.50;;;0.90;99.90;;;;;;5090716;28;20226;-71
2023/02/28 07:36:53;;;;;;;10.50;5.67;;;1.00;99.90;;;;;;5090194;28;20298;-71
2023/02/28 07:39:20;;;;;;;5.90;4.80;;;1.00;99.90;;;;;;5090592;28;20299;-71
2023/02/28 07:41:47;;;;;;;8.70;5.50;;;1.10;99.90;;;;;;5090630;28;20214;-71
2023/02/28 07:44:14;;;;;;;6.87;4.77;;;1.20;99.90;;;;;;5090558;28;20293;-71
2023/02/28 07:46:41;;;;;;;7.10;5.43;;;1.30;99.90;;;;;;5090452;28;20337;-71
2023/02/28 07:49:07;;;;;;;8.00;5.40;;;1.40;99.90;;;;;;5090489;28;20322;-71
2023/02/28 07:51:36;;;;;;;8.40;5.63;;;1.50;99.90;;;;;;5090378;28;20289;-71
2023/02/28 07:54:02;;;;;;;7.37;6.13;;;1.60;99.90;;;;;;5090260;28;20209;-72
2023/02/28 07:56:29;;;;;;;7.97;5.47;;;1.60;99.90;;;;;;5090336;28;20213;-72
2023/02/28 07:58:56;;;;;;;10.37;6.27;;;1.70;99.90;;;;;;5090475;28;20289;-72
2023/02/28 08:01:23;;;;;;;7.50;6.03;;;1.80;99.90;;;;;;5090453;28;20306;-71
2023/02/28 08:03:50;;;;;;;7.77;5.60;;;1.90;99.90;;;;;;5090270;28;20289;-72
2023/02/28 08:06:20;;;;;;;6.57;5.33;;;2.00;99.90;;;;;;5090156;28;20221;-72
2023/02/28 08:08:48;;;;;;;8.03;5.83;;;2.10;99.90;;;;;;5089291;28;20321;-72
2023/02/28 08:11:16;;;;;;;5.70;5.17;;;2.20;99.90;;;;;;5089207;28;20201;-72
2023/02/28 08:13:44;;;;;;;6.90;5.30;;;2.30;99.90;;;;;;5090140;28;20211;-72
2023/02/28 08:16:11;;;;;;;12.00;5.30;;;2.30;99.90;;;;;;5090143;28;20571;-72
2023/02/28 08:18:38;;;;;;;8.37;5.23;;;2.40;99.90;;;;;;5089785;28;20238;-72
2023/02/28 08:21:08;;;;;;;6.80;5.17;;;2.50;99.90;;;;;;5089841;28;20209;-72
2023/02/28 08:23:35;;;;;;;5.50;5.00;;;2.60;99.90;;;;;;5089371;28;20241;-72
2023/02/28 08:26:04;;;;;;;6.00;4.50;;;2.70;99.90;;;;;;5089316;28;20728;-72
2023/02/28 08:28:32;;;;;;;6.43;4.27;;;2.80;99.90;;;;;;5089729;28;20231;-72
2023/02/28 08:30:59;;;;;;;4.43;4.03;;;2.80;99.90;;;;;;5080318;28;20733;-72
2023/02/28 08:33:26;;;;;;;4.37;3.47;;;2.90;99.90;;;;;;5079576;28;20309;-71
2023/02/28 08:35:56;;;;;;;4.73;3.47;;;3.00;99.90;;;;;;5089341;28;20289;-72
2023/02/28 08:38:24;;;;;;;3.80;2.90;;;3.00;99.90;;;;;;5089484;28;20294;-72
2023/02/28 08:40:57;;;;;;;2.87;2.63;;;3.10;99.90;;;;;;5089079;28;20665;-72
2023/02/28 08:43:25;;;;;;;3.13;2.83;;;3.20;99.90;;;;;;5089241;28;20195;-71
2023/02/28 08:45:53;;;;;;;2.87;2.57;;;3.20;99.90;;;;;;5089364;28;20309;-72
2023/02/28 08:48:20;;;;;;;3.17;2.50;;;3.20;99.90;;;;;;5089101;28;20241;-73
2023/02/28 08:50:56;;;;;;;2.93;2.00;;;3.30;99.90;;;;;;5088984;28;20294;-73
2023/02/28 08:53:23;;;;;;;1.70;1.60;;;3.30;99.90;;;;;;5089247;28;20306;-72
2023/02/28 08:55:57;;;;;;;2.60;1.70;;;3.40;99.90;;;;;;5088987;28;20764;-72
2023/02/28 08:58:26;;;;;;;1.80;1.70;;;3.50;99.90;;;;;;5088992;28;20281;-73
2023/02/28 09:00:53;;;;;;;2.80;1.90;;;3.50;99.90;;;;;;5088915;28;20661;-73
2023/02/28 09:03:20;;;;;;;2.13;1.93;;;3.60;99.90;;;;;;5089060;28;20322;-72
2023/02/28 09:05:54;;;;;;;1.60;1.50;;;3.60;99.90;;;;;;5088950;28;20298;-72
2023/02/28 09:08:21;;;;;;;2.37;1.60;;;3.70;99.90;;;;;;5088428;28;20269;-72
2023/02/28 09:10:48;;;;;;;1.73;1.63;;;3.70;99.90;;;;;;5088756;28;20280;-73
2023/02/28 09:13:15;;;;;;;1.70;1.60;;;3.80;99.90;;;;;;5089152;28;20203;-72
2023/02/28 09:15:43;;;;;;;1.17;1.13;;;3.90;99.90;;;;;;5088805;28;20297;-73
2023/02/28 09:18:10;;;;;;;1.77;1.50;;;4.00;99.90;;;;;;5088747;28;20286;-72
2023/02/28 09:20:39;;;;;;;1.30;1.20;;;4.10;99.90;;;;;;5088583;28;20211;-72
2023/02/28 09:23:06;;;;;;;2.33;1.67;;;4.10;99.90;;;;;;5088140;28;20213;-72
2023/02/28 09:25:33;;;;;;;1.87;1.50;;;4.20;99.90;;;;;;5088824;28;20289;-72
2023/02/28 09:28:00;;;;;;;1.50;1.40;;;4.30;99.90;;;;;;5088367;28;20279;-73
2023/02/28 09:30:27;;;;;;;1.50;1.40;;;4.30;99.90;;;;;;5083758;28;20290;-71
2023/02/28 09:32:56;;;;;;;1.93;1.70;;;4.40;99.90;;;;;;5068189;28;20658;-71
2023/02/28 09:35:24;;;;;;;1.53;1.40;;;4.50;99.90;;;;;;5068212;28;20336;-71
2023/02/28 09:37:52;;;;;;;2.13;1.67;;;4.50;99.90;;;;;;5068425;28;20283;-72
2023/02/28 09:40:21;;;;;;;1.57;1.47;;;4.60;99.90;;;;;;5068147;28;20207;-72
2023/02/28 09:42:50;;;;;;;1.80;1.63;;;4.70;99.90;;;;;;5067984;28;20199;-72
2023/02/28 09:45:24;;;;;;;1.63;1.53;;;4.80;99.90;;;;;;5068195;28;20286;-72
2023/02/28 09:47:54;;;;;;;1.83;1.50;;;4.90;99.90;;;;;;5067903;28;20666;-71
2023/02/28 09:50:33;;;;;;;1.53;1.43;;;4.90;99.90;;;;;;5086824;28;20241;-72
2023/02/28 09:53:02;;;;;;;1.33;1.33;;;5.00;99.90;;;;;;5088178;28;20226;-72
2023/02/28 09:55:33;;;;;;;1.40;1.30;;;5.10;99.90;;;;;;5088030;28;20278;-72
2023/02/28 09:58:02;;;;;;;1.73;1.50;;;5.10;99.90;;;;;;5088316;28;20209;-72
2023/02/28 10:00:33;;;;;;;1.50;1.40;;;5.30;99.90;;;;;;5087746;28;20207;-71
2023/02/28 10:03:25;;;;;;;1.60;1.47;;;5.50;99.90;;;;;;5087921;28;20237;-72
2023/02/28 10:06:04;;;;;;;1.60;1.50;;;5.60;99.90;;;;;;5087785;28;20256;-73
2023/02/28 10:08:42;;;;;;;3.97;1.57;;;5.70;99.90;;;;;;5087277;28;20296;-73
2023/02/28 10:11:15;;;;;;;1.70;1.60;;;5.80;99.90;;;;;;5088122;28;20248;-71
2023/02/28 10:13:52;;;;;;;1.50;1.40;;;5.90;99.90;;;;;;5088142;28;20282;-73
2023/02/28 10:16:26;;;;;;;1.60;1.50;;;5.90;99.90;;;;;;5082538;28;20772;-73
2023/02/28 10:18:58;;;;;;;2.97;1.97;;;6.10;99.90;;;;;;5080008;28;20211;-73
2023/02/28 10:21:30;;;;;;;2.80;1.70;;;6.20;99.90;;;;;;5087480;28;20198;-71
2023/02/28 10:24:04;;;;;;;3.23;1.80;;;6.30;99.90;;;;;;5087495;28;20281;-70
2023/02/28 10:26:33;;;;;;;1.50;1.40;;;6.40;99.90;;;;;;5088040;28;20268;-72
2023/02/28 10:29:00;;;;;;;3.53;1.90;;;6.40;99.80;;;;;;5088018;28;20226;-73
2023/02/28 10:31:27;;;;;;;1.80;1.60;;;6.50;99.20;;;;;;5074917;28;20286;-73
2023/02/28 10:33:54;;;;;;;1.83;1.70;;;6.60;99.80;;;;;;5067204;28;20334;-74
2023/02/28 10:36:22;;;;;;;2.50;1.43;;;6.70;99.40;;;;;;5067754;28;20243;-73
2023/02/28 10:38:51;;;;;;;3.37;1.57;;;6.80;99.30;;;;;;5067583;28;20229;-73
2023/02/28 10:41:28;;;;;;;2.60;1.50;;;6.70;98.80;;;;;;5067683;28;20346;-71
2023/02/28 10:44:14;;;;;;;3.27;1.90;;;6.80;98.80;;;;;;5068083;28;20282;-71
2023/02/28 10:46:42;;;;;;;2.90;1.80;;;6.80;98.40;;;;;;5067309;28;20283;-71
2023/02/28 10:49:16;;;;;;;1.53;1.43;;;6.90;98.60;;;;;;5075858;28;20284;-71
2023/02/28 10:51:43;;;;;;;1.70;1.60;;;6.90;98.80;;;;;;5087588;28;20241;-71
2023/02/28 10:54:19;;;;;;;2.43;1.77;;;7.00;98.90;;;;;;5087378;28;20213;-71
2023/02/28 10:56:46;;;;;;;2.10;1.60;;;7.00;98.60;;;;;;5087241;28;20226;-71
2023/02/28 10:59:29;;;;;;;1.60;1.50;;;7.10;99.00;;;;;;5087422;28;20301;-71
2023/02/28 11:01:57;;;;;;;4.23;2.10;;;7.20;98.90;;;;;;5087454;28;20219;-71
2023/02/28 11:04:37;;;;;;;5.17;1.77;;;7.30;99.00;;;;;;5087274;28;20230;-71
2023/02/28 11:07:06;;;;;;;2.30;1.60;;;7.30;98.80;;;;;;5087589;28;20292;-71
2023/02/28 11:09:38;;;;;;;1.93;1.33;;;7.40;98.50;;;;;;5086641;28;20211;-72
2023/02/28 11:12:07;;;;;;;3.23;1.90;;;7.50;97.80;;;;;;5081184;28;20290;-72
2023/02/28 11:14:40;;;;;;;1.90;1.80;;;7.60;98.10;;;;;;5087124;28;20297;-72
2023/02/28 11:17:19;;;;;;;3.77;2.07;;;7.70;97.60;;;;;;5087401;28;20242;-72
2023/02/28 11:19:49;;;;;;;3.67;2.10;;;7.90;97.70;;;;;;5087043;28;20687;-72
2023/02/28 11:22:20;;;;;;;1.80;1.70;;;7.90;97.10;;;;;;5086965;28;20257;-72
2023/02/28 11:24:52;;;;;;;2.53;1.90;;;7.90;96.60;;;;;;5087144;28;20270;-72
2023/02/28 11:27:47;;;;;;;1.97;1.77;;;7.90;96.60;;;;;;5087095;28;20720;-72
2023/02/28 11:30:34;;;;;;;2.80;1.77;;;7.90;96.30;;;;;;5087390;28;20190;-73
2023/02/28 11:33:02;;;;;;;1.97;1.83;;;8.00;97.10;;;;;;5086577;28;20285;-72
2023/02/28 11:35:34;;;;;;;4.97;1.73;;;8.20;97.80;;;;;;5086780;28;20303;-72
2023/02/28 11:38:02;;;;;;;3.10;2.10;;;8.30;97.70;;;;;;5086933;28;20195;-72
2023/02/28 11:40:47;;;;;;;2.23;2.10;;;8.50;97.60;;;;;;5086818;28;20305;-72
2023/02/28 11:43:28;;;;;;;3.23;1.43;;;8.50;96.90;;;;;;5086826;28;20563;-72
2023/02/28 11:46:10;;;;;;;1.90;1.80;;;8.70;96.50;;;;;;5089207;28;20241;-72
2023/02/28 11:48:47;;;;;;;1.73;1.60;;;8.80;95.90;;;;;;5086658;28;20306;-73
2023/02/28 11:51:21;;;;;;;2.10;1.80;;;8.80;96.10;;;;;;5070363;28;20256;-73
2023/02/28 11:53:58;;;;;;;2.13;1.80;;;8.90;96.20;;;;;;5088835;28;20293;-72
2023/02/28 11:56:33;;;;;;;2.33;1.70;;;8.90;96.30;;;;;;5090537;28;20278;-72
2023/02/28 11:59:12;;;;;;;2.50;1.63;;;9.00;96.20;;;;;;5090439;28;20199;-72
2023/02/28 12:01:52;;;;;;;2.40;1.87;;;9.10;95.60;;;;;;5090372;28;20199;-73
2023/02/28 12:04:31;;;;;;;8.23;2.20;;;9.10;95.60;;;;;;5090362;28;20279;-73
2023/02/28 12:07:04;;;;;;;2.20;1.93;;;9.20;95.90;;;;;;5089778;28;20307;-72
2023/02/28 12:09:44;;;;;;;2.17;1.97;;;9.30;95.30;;;;;;5089547;28;20214;-73
2023/02/28 12:12:26;;;;;;;2.47;1.83;;;9.30;95.20;;;;;;5085253;28;20297;-73
2023/02/28 12:15:23;;;;;;;2.00;1.83;;;9.40;95.50;;;;;;5089923;28;20241;-73
2023/02/28 12:18:09;;;;;;;2.70;2.20;;;9.50;95.30;;;;;;5089932;28;20222;-72
2023/02/28 12:20:44;;;;;;;3.03;2.20;;;9.50;94.80;;;;;;5069818;28;20208;-73
2023/02/28 12:23:48;;;;;;;2.10;1.80;;;9.60;95.10;;;;;;5078448;28;20210;-73
2023/02/28 12:26:24;;;;;;;2.37;2.10;;;9.70;94.30;;;;;;5089694;28;20293;-73
2023/02/28 12:28:58;;;;;;;3.53;1.77;;;9.80;94.10;;;;;;5089586;28;20632;-73
2023/02/28 12:31:30;;;;;;;1.70;1.60;;;9.80;93.80;;;;;;5090065;28;20280;-73
2023/02/28 12:34:03;;;;;;;1.73;1.47;;;9.90;93.90;;;;;;5089332;28;20270;-73
2023/02/28 12:36:31;;;;;;;1.90;1.80;;;10.00;94.50;;;;;;5089439;28;20798;-73
2023/02/28 12:39:02;;;;;;;1.97;1.87;;;10.20;94.60;;;;;;5088983;28;20657;-73
2023/02/28 12:41:35;;;;;;;2.13;1.83;;;10.20;93.80;;;;;;5089269;28;20298;-73
2023/02/28 12:44:10;;;;;;;2.20;1.90;;;10.30;93.60;;;;;;5089405;28;20234;-73
2023/02/28 12:46:39;;;;;;;1.67;1.57;;;10.40;93.30;;;;;;5089180;28;20282;-72
2023/02/28 12:49:10;;;;;;;4.33;1.87;;;10.40;93.40;;;;;;5088933;28;20332;-72
2023/02/28 12:51:38;;;;;;;3.83;2.37;;;10.50;93.00;;;;;;5089156;28;20197;-72
2023/02/28 12:54:17;;;;;;;2.03;1.93;;;10.50;92.00;;;;;;5088983;28;20252;-74
2023/02/28 12:56:53;;;;;;;2.33;1.90;;;10.60;92.40;;;;;;5088680;28;20205;-72
2023/02/28 12:59:28;;;;;;;2.83;2.00;;;10.60;92.60;;;;;;5089361;28;20205;-72
2023/02/28 13:02:30;;;;;;;2.00;1.90;;;10.70;92.60;;;;;;5089143;28;20493;-72
2023/02/28 13:05:35;;;;;;;2.50;2.20;;;10.60;91.70;;;;;;5073085;28;20245;-72
2023/02/28 13:08:25;;;;;;;2.30;2.10;;;10.70;92.10;;;;;;5088156;28;20230;-71
2023/02/28 13:10:55;;;;;;;2.20;2.10;;;10.80;91.90;;;;;;5088848;28;20191;-72
2023/02/28 13:13:24;;;;;;;3.50;2.23;;;11.00;92.00;;;;;;5089084;28;20202;-72
2023/02/28 13:16:07;;;;;;;2.40;2.10;;;11.10;92.10;;;;;;5088397;28;20797;-72